Time;durP1;ratioP1;P1;durP2;ratioP2;P2;SDS_P1;SDS_P2;PMS_P1;PMS_P2;Temp;Humidity;BMP_temperature;BMP_pressure;BME280_temperature;BME280_humidity;BME280_pressure;Samples;Min_cycle;Max_cycle;Signal;HPM_P1;HPM_P2
2023/10/15 00:02:03;;;;;;;10.80;3.80;;;;;;;;;;5058343;28;20029;-67
2023/10/15 00:04:28;;;;;;;10.05;3.47;;;;;;;;;;5028274;28;20024;-67
2023/10/15 00:06:54;;;;;;;9.15;3.60;;;;;;;;;;5046529;28;20036;-67
2023/10/15 00:09:20;;;;;;;10.68;3.47;;;;;;;;;;5043329;28;20033;-67
2023/10/15 00:11:45;;;;;;;6.45;3.10;;;;;;;;;;5048603;28;20082;-67
2023/10/15 00:14:10;;;;;;;8.80;3.42;;;;;;;;;;5049239;28;20872;-67
2023/10/15 00:16:35;;;;;;;8.40;3.53;;;;;;;;;;5065548;28;20028;-67
2023/10/15 00:19:09;;;;;;;7.77;4.07;;;;;;;;;;5077763;28;20380;-67
2023/10/15 00:21:34;;;;;;;11.93;4.32;;;;;;;;;;5083170;28;20279;-67
2023/10/15 00:24:01;;;;;;;8.13;4.10;;;;;;;;;;5091948;28;20035;-67
2023/10/15 00:26:27;;;;;;;8.77;4.07;;;;;;;;;;5079174;28;20032;-67
2023/10/15 00:28:55;;;;;;;10.38;4.20;;;;;;;;;;5089549;28;20363;-67
2023/10/15 00:31:20;;;;;;;7.80;3.80;;;;;;;;;;5085380;28;20475;-67
2023/10/15 00:33:48;;;;;;;8.47;4.20;;;;;;;;;;5093831;28;20073;-67
2023/10/15 00:36:14;;;;;;;10.07;4.55;;;;;;;;;;5090880;28;20807;-67
2023/10/15 00:38:43;;;;;;;9.73;4.05;;;;;;;;;;5094257;28;20060;-67
2023/10/15 00:41:09;;;;;;;10.73;3.30;;;;;;;;;;5094088;28;20454;-67
2023/10/15 00:43:34;;;;;;;7.05;3.47;;;;;;;;;;5093874;28;20020;-67
2023/10/15 00:46:00;;;;;;;8.80;3.75;;;;;;;;;;5094008;28;20107;-67
2023/10/15 00:48:33;;;;;;;7.38;3.55;;;;;;;;;;5093223;28;20060;-67
2023/10/15 00:50:58;;;;;;;11.85;4.50;;;;;;;;;;5091635;28;20028;-68
2023/10/15 00:53:26;;;;;;;7.28;3.70;;;;;;;;;;5090726;28;20028;-68
2023/10/15 00:56:01;;;;;;;10.57;3.33;;;;;;;;;;5093556;28;20028;-68
2023/10/15 00:58:31;;;;;;;4.82;3.38;;;;;;;;;;5094081;28;20032;-68
2023/10/15 01:01:00;;;;;;;6.82;3.15;;;;;;;;;;5092283;28;20065;-68
2023/10/15 01:03:30;;;;;;;6.85;3.75;;;;;;;;;;5093796;28;20055;-68
2023/10/15 01:05:59;;;;;;;6.63;3.53;;;;;;;;;;5093827;28;20409;-68
2023/10/15 01:08:35;;;;;;;4.53;2.78;;;;;;;;;;5093200;28;20538;-68
2023/10/15 01:11:18;;;;;;;6.57;3.47;;;;;;;;;;5087243;28;20024;-68
2023/10/15 01:13:43;;;;;;;9.00;3.58;;;;;;;;;;5089646;28;20107;-69
2023/10/15 01:16:10;;;;;;;7.53;3.08;;;;;;;;;;5093912;28;20637;-68
2023/10/15 01:18:36;;;;;;;9.65;3.25;;;;;;;;;;5092912;28;20115;-68
2023/10/15 01:21:04;;;;;;;7.40;3.10;;;;;;;;;;5093211;28;20103;-68
2023/10/15 01:23:31;;;;;;;10.68;3.80;;;;;;;;;;5093603;28;20020;-68
2023/10/15 01:25:57;;;;;;;9.02;3.58;;;;;;;;;;5083902;28;20039;-68
2023/10/15 01:28:34;;;;;;;7.53;3.22;;;;;;;;;;5089252;28;20036;-68
2023/10/15 01:31:02;;;;;;;8.25;3.53;;;;;;;;;;5093617;28;20028;-68
2023/10/15 01:33:29;;;;;;;6.97;3.30;;;;;;;;;;5090479;28;20040;-68
2023/10/15 01:35:57;;;;;;;8.63;3.53;;;;;;;;;;5083702;28;20020;-68
2023/10/15 01:38:27;;;;;;;7.20;3.70;;;;;;;;;;5091216;28;20020;-68
2023/10/15 01:40:56;;;;;;;8.10;3.55;;;;;;;;;;5092359;28;20569;-67
2023/10/15 01:43:22;;;;;;;8.18;3.45;;;;;;;;;;5093463;28;20048;-67
2023/10/15 01:45:47;;;;;;;7.28;3.72;;;;;;;;;;5093397;28;20024;-67
2023/10/15 01:48:13;;;;;;;7.22;3.78;;;;;;;;;;5092917;28;20020;-67
2023/10/15 01:50:44;;;;;;;7.50;3.83;;;;;;;;;;5089745;28;20526;-67
2023/10/15 01:53:09;;;;;;;9.00;3.40;;;;;;;;;;5091064;28;20038;-67
2023/10/15 01:55:52;;;;;;;5.82;3.30;;;;;;;;;;5092608;28;20024;-67
2023/10/15 01:58:17;;;;;;;7.03;3.40;;;;;;;;;;5090937;28;20467;-68
2023/10/15 02:03:07;;;;;;;8.03;3.43;;;;;;;;;;5092572;28;20042;-68
2023/10/15 02:05:42;;;;;;;6.28;2.95;;;;;;;;;;5092617;28;20693;-69
2023/10/15 02:08:13;;;;;;;7.75;3.28;;;;;;;;;;5091410;28;20016;-68
2023/10/15 02:10:46;;;;;;;7.13;3.38;;;;;;;;;;5091967;28;20032;-67
2023/10/15 02:13:11;;;;;;;8.38;3.20;;;;;;;;;;5092077;28;20074;-67
2023/10/15 02:15:41;;;;;;;8.05;2.88;;;;;;;;;;5091849;28;20020;-67
2023/10/15 02:18:08;;;;;;;4.93;2.63;;;;;;;;;;5086002;28;20367;-67
2023/10/15 02:23:18;;;;;;;5.03;2.53;;;;;;;;;;5081144;28;20363;-67
2023/10/15 02:25:47;;;;;;;7.72;3.20;;;;;;;;;;5089538;28;20024;-67
2023/10/15 02:28:17;;;;;;;6.28;2.30;;;;;;;;;;5072358;28;20502;-67
2023/10/15 02:30:46;;;;;;;5.45;2.75;;;;;;;;;;5092239;28;20359;-67
2023/10/15 02:33:16;;;;;;;6.70;2.78;;;;;;;;;;5091787;28;20045;-67
2023/10/15 02:35:42;;;;;;;7.13;3.00;;;;;;;;;;5070350;28;20015;-67
2023/10/15 02:38:10;;;;;;;6.20;2.28;;;;;;;;;;5037656;28;20096;-67
2023/10/15 02:40:37;;;;;;;8.95;2.60;;;;;;;;;;5046027;28;20166;-68
2023/10/15 02:43:06;;;;;;;6.20;2.58;;;;;;;;;;5045557;28;20842;-67
2023/10/15 02:45:35;;;;;;;6.93;2.25;;;;;;;;;;5042587;28;20083;-67
2023/10/15 02:48:09;;;;;;;11.68;2.42;;;;;;;;;;5047585;28;20032;-68
2023/10/15 02:50:35;;;;;;;8.82;2.38;;;;;;;;;;5074127;28;20027;-67
2023/10/15 02:53:04;;;;;;;4.53;2.13;;;;;;;;;;5092142;28;20453;-67
2023/10/15 02:55:36;;;;;;;4.88;2.03;;;;;;;;;;5054689;28;20917;-67
2023/10/15 02:58:02;;;;;;;6.13;2.00;;;;;;;;;;5036942;28;20016;-67
2023/10/15 03:02:53;;;;;;;6.35;1.88;;;;;;;;;;5039207;28;20031;-67
2023/10/15 03:05:24;;;;;;;5.03;2.03;;;;;;;;;;5045135;28;20129;-69
2023/10/15 03:07:50;;;;;;;6.68;1.90;;;;;;;;;;5053318;28;20051;-67
2023/10/15 03:10:24;;;;;;;7.87;2.17;;;;;;;;;;5091193;28;20051;-68
2023/10/15 03:12:50;;;;;;;8.27;2.33;;;;;;;;;;5088898;28;20787;-67
2023/10/15 03:15:16;;;;;;;4.30;1.98;;;;;;;;;;5090897;28;20063;-67
2023/10/15 03:17:43;;;;;;;7.13;2.20;;;;;;;;;;5088043;28;20107;-68
2023/10/15 03:22:46;;;;;;;4.80;1.80;;;;;;;;;;5091127;28;20038;-68
2023/10/15 03:25:14;;;;;;;4.40;1.70;;;;;;;;;;5088160;28;20527;-67
2023/10/15 03:27:40;;;;;;;7.07;2.47;;;;;;;;;;5081137;28;20405;-67
2023/10/15 03:30:09;;;;;;;6.28;1.65;;;;;;;;;;5090901;28;20102;-67
2023/10/15 03:32:40;;;;;;;4.78;1.50;;;;;;;;;;5091261;28;20043;-67
2023/10/15 03:35:08;;;;;;;4.68;2.00;;;;;;;;;;5090673;28;20462;-68
2023/10/15 03:37:38;;;;;;;5.43;1.73;;;;;;;;;;5090855;28;20068;-67
2023/10/15 03:40:11;;;;;;;6.90;1.85;;;;;;;;;;5090619;28;20058;-67
2023/10/15 03:42:39;;;;;;;4.15;1.77;;;;;;;;;;5090742;28;20098;-67
2023/10/15 03:45:08;;;;;;;4.78;1.83;;;;;;;;;;5090545;28;20420;-67
2023/10/15 03:47:39;;;;;;;5.00;1.90;;;;;;;;;;5090809;28;20507;-67
2023/10/15 03:50:09;;;;;;;5.78;1.65;;;;;;;;;;5089539;28;20482;-69
2023/10/15 03:52:34;;;;;;;3.70;1.45;;;;;;;;;;5078571;28;20028;-67
2023/10/15 03:54:59;;;;;;;4.05;1.83;;;;;;;;;;5090504;28;20024;-68
2023/10/15 03:57:27;;;;;;;6.75;1.80;;;;;;;;;;5066383;28;20027;-67
2023/10/15 03:59:53;;;;;;;6.60;1.85;;;;;;;;;;5080759;28;20031;-67
2023/10/15 04:02:22;;;;;;;10.32;1.90;;;;;;;;;;5048939;28;20798;-67
2023/10/15 04:05:11;;;;;;;5.90;2.03;;;;;;;;;;5046322;28;20028;-67
2023/10/15 04:07:49;;;;;;;3.08;1.27;;;;;;;;;;5043259;28;20039;-67
2023/10/15 04:10:15;;;;;;;5.45;1.20;;;;;;;;;;5050340;28;20045;-67
2023/10/15 04:12:43;;;;;;;5.15;1.65;;;;;;;;;;5042997;28;20023;-67
2023/10/15 04:15:16;;;;;;;4.65;1.60;;;;;;;;;;5046162;28;20027;-67
2023/10/15 04:17:44;;;;;;;3.95;1.95;;;;;;;;;;5042948;28;20035;-67
2023/10/15 04:20:10;;;;;;;4.88;1.52;;;;;;;;;;5045868;28;20016;-67
2023/10/15 04:22:44;;;;;;;4.68;1.40;;;;;;;;;;5047104;28;20893;-67
2023/10/15 04:25:23;;;;;;;7.70;1.92;;;;;;;;;;5037449;28;20027;-67
2023/10/15 04:27:52;;;;;;;5.00;1.75;;;;;;;;;;5038157;28;20143;-67
2023/10/15 04:30:18;;;;;;;5.53;1.48;;;;;;;;;;5039804;28;20033;-67
2023/10/15 04:35:11;;;;;;;7.00;1.90;;;;;;;;;;5038301;28;20064;-67
2023/10/15 04:37:37;;;;;;;8.57;2.08;;;;;;;;;;5041549;28;20012;-68
2023/10/15 04:40:05;;;;;;;4.93;1.80;;;;;;;;;;5042188;28;20048;-67
2023/10/15 04:42:37;;;;;;;4.53;1.50;;;;;;;;;;5041703;28;20020;-67
2023/10/15 04:45:12;;;;;;;5.15;1.80;;;;;;;;;;5047203;28;20872;-67
2023/10/15 04:47:41;;;;;;;6.78;1.52;;;;;;;;;;5038297;28;20119;-68
2023/10/15 04:50:16;;;;;;;5.30;2.13;;;;;;;;;;5039037;28;21220;-67
2023/10/15 04:52:42;;;;;;;5.43;2.15;;;;;;;;;;5061360;28;20412;-67
2023/10/15 04:55:08;;;;;;;4.60;1.67;;;;;;;;;;5059553;28;20023;-66
2023/10/15 04:57:33;;;;;;;5.47;1.67;;;;;;;;;;5049853;28;20024;-67
2023/10/15 04:59:58;;;;;;;4.63;1.73;;;;;;;;;;5047348;28;20028;-66
2023/10/15 05:02:24;;;;;;;6.80;2.20;;;;;;;;;;5049050;28;20750;-67
2023/10/15 05:04:49;;;;;;;5.63;1.58;;;;;;;;;;5048577;28;20944;-67
2023/10/15 05:07:15;;;;;;;5.32;2.00;;;;;;;;;;5046993;28;20031;-66
2023/10/15 05:09:41;;;;;;;3.78;1.23;;;;;;;;;;5092644;28;20038;-67
2023/10/15 05:12:07;;;;;;;5.97;1.38;;;;;;;;;;5092133;28;20024;-67
2023/10/15 05:14:32;;;;;;;3.78;1.50;;;;;;;;;;5093353;28;20394;-67
2023/10/15 05:16:59;;;;;;;6.60;1.75;;;;;;;;;;5093008;28;20069;-67
2023/10/15 05:19:25;;;;;;;4.60;1.77;;;;;;;;;;5085386;28;20020;-66
2023/10/15 05:21:51;;;;;;;7.70;1.80;;;;;;;;;;5092423;28;20026;-68
2023/10/15 05:24:19;;;;;;;4.13;1.65;;;;;;;;;;5085332;28;20077;-68
2023/10/15 05:26:46;;;;;;;5.40;1.30;;;;;;;;;;5082515;28;20035;-67
2023/10/15 05:29:13;;;;;;;2.90;1.40;;;;;;;;;;5093182;28;20039;-67
2023/10/15 05:31:38;;;;;;;4.45;1.45;;;;;;;;;;5059153;28;20016;-67
2023/10/15 05:34:04;;;;;;;4.32;1.35;;;;;;;;;;5070539;28;20383;-67
2023/10/15 05:36:30;;;;;;;7.13;1.60;;;;;;;;;;5093162;28;20136;-68
2023/10/15 05:38:55;;;;;;;3.17;1.25;;;;;;;;;;5093102;28;20028;-67
2023/10/15 05:41:23;;;;;;;4.28;1.38;;;;;;;;;;5081568;28;20082;-67
2023/10/15 05:43:48;;;;;;;4.57;1.70;;;;;;;;;;5090802;28;20059;-67
2023/10/15 05:46:14;;;;;;;5.33;1.63;;;;;;;;;;5090002;28;20070;-67
2023/10/15 05:48:39;;;;;;;3.65;0.95;;;;;;;;;;5092594;28;20293;-68
2023/10/15 05:51:06;;;;;;;3.63;1.45;;;;;;;;;;5092918;28;20089;-69
2023/10/15 05:53:32;;;;;;;3.85;1.50;;;;;;;;;;5092150;28;20016;-68
2023/10/15 05:55:57;;;;;;;5.82;1.58;;;;;;;;;;5088299;28;20023;-69
2023/10/15 05:58:23;;;;;;;5.60;1.50;;;;;;;;;;5083028;28;20020;-69
2023/10/15 06:00:50;;;;;;;7.75;1.52;;;;;;;;;;5092861;28;20400;-69
2023/10/15 06:03:15;;;;;;;5.18;1.33;;;;;;;;;;5042301;28;20284;-69
2023/10/15 06:05:41;;;;;;;5.53;1.45;;;;;;;;;;5045802;28;20053;-68
2023/10/15 06:08:06;;;;;;;4.67;1.43;;;;;;;;;;5045895;28;20900;-67
2023/10/15 06:10:32;;;;;;;5.05;1.30;;;;;;;;;;5039072;28;21160;-68
2023/10/15 06:12:58;;;;;;;5.93;1.45;;;;;;;;;;5058930;28;20040;-68
2023/10/15 06:15:23;;;;;;;3.42;1.50;;;;;;;;;;5092124;28;20024;-68
2023/10/15 06:17:50;;;;;;;4.38;1.52;;;;;;;;;;5092162;28;20039;-68
2023/10/15 06:20:15;;;;;;;4.97;1.40;;;;;;;;;;5092560;28;20062;-68
2023/10/15 06:22:47;;;;;;;5.95;1.48;;;;;;;;;;5091144;28;20052;-68
2023/10/15 06:25:13;;;;;;;3.35;1.77;;;;;;;;;;5089269;28;20020;-68
2023/10/15 06:27:39;;;;;;;7.35;1.70;;;;;;;;;;5088235;28;20026;-68
2023/10/15 06:30:05;;;;;;;3.15;1.55;;;;;;;;;;5092299;28;20101;-68
2023/10/15 06:32:31;;;;;;;3.67;1.65;;;;;;;;;;5091519;28;20478;-68
2023/10/15 06:34:56;;;;;;;6.32;1.80;;;;;;;;;;5091668;28;20096;-68
2023/10/15 06:37:21;;;;;;;3.42;1.15;;;;;;;;;;5074051;28;20020;-68
2023/10/15 06:39:47;;;;;;;3.88;1.45;;;;;;;;;;5037070;28;20027;-68
2023/10/15 06:42:12;;;;;;;4.85;1.40;;;;;;;;;;5039324;28;20028;-68
2023/10/15 06:44:37;;;;;;;3.67;1.30;;;;;;;;;;5046913;28;20136;-68
2023/10/15 06:47:03;;;;;;;3.25;1.70;;;;;;;;;;5044768;28;20127;-68
2023/10/15 06:49:28;;;;;;;5.22;1.40;;;;;;;;;;5040283;28;20021;-68
2023/10/15 06:51:53;;;;;;;5.70;1.90;;;;;;;;;;5046847;28;20067;-67
2023/10/15 06:54:18;;;;;;;6.03;1.73;;;;;;;;;;5048083;28;20258;-67
2023/10/15 06:56:44;;;;;;;6.22;1.67;;;;;;;;;;5048140;28;20846;-68
2023/10/15 06:59:10;;;;;;;6.55;1.58;;;;;;;;;;5043844;28;20016;-67
2023/10/15 07:01:36;;;;;;;5.82;1.70;;;;;;;;;;5037059;28;20016;-67
2023/10/15 07:04:01;;;;;;;3.70;1.33;;;;;;;;;;5033847;28;20024;-67
2023/10/15 07:06:26;;;;;;;4.67;1.60;;;;;;;;;;5042498;28;20020;-69
2023/10/15 07:08:51;;;;;;;4.32;1.80;;;;;;;;;;5038862;28;20344;-68
2023/10/15 07:11:17;;;;;;;3.40;1.50;;;;;;;;;;5037378;28;20035;-68
2023/10/15 07:13:42;;;;;;;7.68;1.58;;;;;;;;;;5048910;28;20317;-68
2023/10/15 07:16:07;;;;;;;7.78;1.63;;;;;;;;;;5045134;28;20047;-68
2023/10/15 07:18:33;;;;;;;5.13;1.27;;;;;;;;;;5037934;28;20024;-67
2023/10/15 07:20:58;;;;;;;4.57;1.10;;;;;;;;;;5057016;28;20027;-68
2023/10/15 07:23:23;;;;;;;6.05;1.42;;;;;;;;;;5085786;28;20048;-68
2023/10/15 07:25:49;;;;;;;4.70;1.60;;;;;;;;;;5088875;28;20108;-67
2023/10/15 07:28:15;;;;;;;6.28;1.27;;;;;;;;;;5084829;28;20016;-67
2023/10/15 07:30:40;;;;;;;4.68;1.52;;;;;;;;;;5085273;28;20115;-67
2023/10/15 07:33:05;;;;;;;2.70;1.33;;;;;;;;;;5090984;28;20032;-67
2023/10/15 07:35:31;;;;;;;5.50;1.67;;;;;;;;;;5090822;28;20031;-67
2023/10/15 07:37:57;;;;;;;7.03;1.40;;;;;;;;;;5090886;28;20042;-67
2023/10/15 07:40:25;;;;;;;4.80;1.38;;;;;;;;;;5090114;28;20383;-67
2023/10/15 07:42:52;;;;;;;4.50;1.58;;;;;;;;;;5091023;28;20024;-67
2023/10/15 07:45:17;;;;;;;3.88;1.40;;;;;;;;;;5090728;28;20089;-68
2023/10/15 07:47:43;;;;;;;9.95;1.63;;;;;;;;;;5090149;28;20483;-67
2023/10/15 07:50:09;;;;;;;3.80;1.40;;;;;;;;;;5088483;28;20032;-67
2023/10/15 07:52:35;;;;;;;5.00;1.23;;;;;;;;;;5088001;28;20024;-67
2023/10/15 07:55:00;;;;;;;5.53;1.40;;;;;;;;;;5086193;28;20372;-67
2023/10/15 07:57:26;;;;;;;3.45;1.10;;;;;;;;;;5085157;28;20024;-67
2023/10/15 07:59:54;;;;;;;6.60;1.20;;;;;;;;;;5077440;28;20028;-67
2023/10/15 08:02:21;;;;;;;4.00;1.40;;;;;;;;;;5089759;28;20020;-68
2023/10/15 08:04:46;;;;;;;6.10;2.25;;;;;;;;;;5090806;28;20040;-68
2023/10/15 08:07:12;;;;;;;7.72;1.42;;;;;;;;;;5085564;28;20047;-68
2023/10/15 08:09:37;;;;;;;4.47;1.50;;;;;;;;;;5090676;28;20032;-68
2023/10/15 08:12:03;;;;;;;3.50;1.27;;;;;;;;;;5090730;28;20024;-68
2023/10/15 08:14:28;;;;;;;4.47;1.30;;;;;;;;;;5090575;28;20085;-68
2023/10/15 08:16:53;;;;;;;3.70;1.15;;;;;;;;;;5089895;28;20028;-68
2023/10/15 08:19:19;;;;;;;6.17;1.37;;;;;;;;;;5090578;28;20035;-68
2023/10/15 08:21:44;;;;;;;5.27;1.37;;;;;;;;;;5090532;28;20274;-68
2023/10/15 08:24:09;;;;;;;4.75;1.23;;;;;;;;;;5090209;28;20277;-68
2023/10/15 08:26:35;;;;;;;9.35;1.67;;;;;;;;;;5072194;28;20021;-67
2023/10/15 08:29:02;;;;;;;4.68;1.63;;;;;;;;;;5037444;28;20150;-67
2023/10/15 08:31:27;;;;;;;2.78;0.93;;;;;;;;;;5049201;28;20032;-68
2023/10/15 08:33:52;;;;;;;5.45;1.20;;;;;;;;;;5045788;28;20036;-67
2023/10/15 08:36:19;;;;;;;4.80;1.17;;;;;;;;;;5051263;28;20785;-68
2023/10/15 08:38:44;;;;;;;3.58;1.15;;;;;;;;;;5049921;28;20101;-67
2023/10/15 08:41:11;;;;;;;6.85;1.80;;;;;;;;;;5047474;28;20022;-67
2023/10/15 08:43:40;;;;;;;4.05;1.35;;;;;;;;;;5048621;28;20036;-69
2023/10/15 08:46:09;;;;;;;7.75;1.90;;;;;;;;;;5041656;28;20059;-68
2023/10/15 08:48:37;;;;;;;5.60;1.50;;;;;;;;;;5048630;28;20043;-68
2023/10/15 08:51:03;;;;;;;6.88;2.65;;;;;;;;;;5047198;28;20024;-68
2023/10/15 08:53:30;;;;;;;4.55;1.80;;;;;;;;;;5039503;28;20024;-67
2023/10/15 08:55:57;;;;;;;4.35;1.75;;;;;;;;;;5084823;28;20016;-68
2023/10/15 08:58:25;;;;;;;3.58;1.23;;;;;;;;;;5092934;28;20085;-68
2023/10/15 09:00:50;;;;;;;4.30;1.15;;;;;;;;;;5093562;28;20067;-67
2023/10/15 09:03:17;;;;;;;4.47;0.95;;;;;;;;;;5093025;28;20435;-68
2023/10/15 09:05:42;;;;;;;5.50;1.40;;;;;;;;;;5093496;28;20028;-69
2023/10/15 09:08:08;;;;;;;2.58;1.10;;;;;;;;;;5092871;28;20024;-67
2023/10/15 09:10:36;;;;;;;8.02;1.45;;;;;;;;;;5093570;28;20486;-68
2023/10/15 09:13:03;;;;;;;3.00;1.02;;;;;;;;;;5093321;28;20103;-69
2023/10/15 09:15:30;;;;;;;5.65;1.00;;;;;;;;;;5084956;28;20102;-69
2023/10/15 09:17:55;;;;;;;4.68;1.33;;;;;;;;;;5092773;28;20425;-69
2023/10/15 09:20:42;;;;;;;6.25;1.52;;;;;;;;;;5093692;28;20016;-69
2023/10/15 09:23:07;;;;;;;3.88;1.08;;;;;;;;;;5088823;28;20474;-69
2023/10/15 09:25:32;;;;;;;5.40;1.40;;;;;;;;;;5087529;28;20020;-69
2023/10/15 09:27:58;;;;;;;5.77;1.07;;;;;;;;;;5088406;28;20293;-68
2023/10/15 09:30:24;;;;;;;2.03;0.77;;;;;;;;;;5092614;28;20335;-68
2023/10/15 09:32:49;;;;;;;4.70;1.20;;;;;;;;;;5093633;28;20023;-68
2023/10/15 09:35:15;;;;;;;2.88;0.88;;;;;;;;;;5092233;28;20359;-68
2023/10/15 09:37:40;;;;;;;3.95;0.77;;;;;;;;;;5093135;28;20016;-69
2023/10/15 09:40:09;;;;;;;2.25;1.00;;;;;;;;;;5092355;28;20382;-69
2023/10/15 09:42:37;;;;;;;4.18;1.02;;;;;;;;;;5092178;28;20389;-68
2023/10/15 09:45:03;;;;;;;3.60;1.13;;;;;;;;;;5092517;28;20100;-68
2023/10/15 09:47:28;;;;;;;3.78;1.10;;;;;;;;;;5092751;28;20020;-69
2023/10/15 09:49:54;;;;;;;3.53;1.20;;;;;;;;;;5079428;28;20482;-69
2023/10/15 09:52:20;;;;;;;3.95;1.10;;;;;;;;;;5092644;28;20039;-69
2023/10/15 09:54:48;;;;;;;2.60;0.93;;;;;;;;;;5063451;28;21123;-68
2023/10/15 09:57:14;;;;;;;4.10;1.08;;;;;;;;;;5082513;28;20040;-69
2023/10/15 09:59:40;;;;;;;2.05;0.80;;;;;;;;;;5091563;28;20107;-69
2023/10/15 10:02:08;;;;;;;7.05;1.17;;;;;;;;;;5092993;28;20566;-69
2023/10/15 10:04:43;;;;;;;3.40;1.00;;;;;;;;;;5092266;28;20161;-68
2023/10/15 10:07:31;;;;;;;3.67;1.00;;;;;;;;;;5091155;28;20024;-69
2023/10/15 10:09:56;;;;;;;4.28;1.35;;;;;;;;;;5088784;28;20502;-70
2023/10/15 10:12:32;;;;;;;4.38;1.30;;;;;;;;;;5091970;28;20048;-68
2023/10/15 10:15:24;;;;;;;3.05;1.27;;;;;;;;;;5090832;28;20032;-69
2023/10/15 10:17:50;;;;;;;1.42;0.70;;;;;;;;;;5074243;28;20028;-70
2023/10/15 10:20:19;;;;;;;3.45;1.23;;;;;;;;;;5083661;28;20469;-69
2023/10/15 10:22:54;;;;;;;4.15;1.27;;;;;;;;;;5092382;28;20032;-69
2023/10/15 10:25:48;;;;;;;3.35;1.10;;;;;;;;;;5076446;28;20467;-68
2023/10/15 10:28:14;;;;;;;5.32;1.67;;;;;;;;;;5067008;28;20036;-68
2023/10/15 10:31:00;;;;;;;3.97;1.75;;;;;;;;;;5091338;28;20089;-69
2023/10/15 10:33:47;;;;;;;5.57;1.38;;;;;;;;;;5089184;28;20474;-68
2023/10/15 10:36:14;;;;;;;3.72;1.55;;;;;;;;;;5091223;28;20028;-69
2023/10/15 10:38:40;;;;;;;4.03;1.48;;;;;;;;;;5091715;28;20031;-68
2023/10/15 10:41:12;;;;;;;3.53;1.60;;;;;;;;;;5092488;28;20032;-69
2023/10/15 10:43:40;;;;;;;5.03;1.40;;;;;;;;;;5090230;28;20032;-67
2023/10/15 10:46:06;;;;;;;4.28;1.30;;;;;;;;;;5092263;28;20023;-68
2023/10/15 10:48:39;;;;;;;5.10;1.50;;;;;;;;;;5090491;28;20074;-68
2023/10/15 10:51:18;;;;;;;4.85;1.52;;;;;;;;;;5082730;28;20033;-68
2023/10/15 10:53:55;;;;;;;5.10;1.65;;;;;;;;;;5091496;28;20382;-69
2023/10/15 10:56:22;;;;;;;3.45;1.58;;;;;;;;;;5077936;28;20546;-68
2023/10/15 10:58:51;;;;;;;3.47;1.50;;;;;;;;;;5091469;28;20483;-68
2023/10/15 11:01:16;;;;;;;5.88;1.67;;;;;;;;;;5078555;28;20016;-68
2023/10/15 11:03:41;;;;;;;4.72;1.70;;;;;;;;;;5046352;28;20036;-68
2023/10/15 11:06:07;;;;;;;6.10;2.50;;;;;;;;;;5034324;28;20296;-67
2023/10/15 11:08:32;;;;;;;4.78;1.63;;;;;;;;;;5049074;28;21161;-68
2023/10/15 11:10:59;;;;;;;3.75;1.50;;;;;;;;;;5037472;28;20042;-67
2023/10/15 11:13:24;;;;;;;4.18;1.60;;;;;;;;;;5043252;28;20020;-68
2023/10/15 11:15:50;;;;;;;2.67;1.40;;;;;;;;;;5038863;28;20051;-68
2023/10/15 11:18:24;;;;;;;3.20;1.50;;;;;;;;;;5039148;28;20143;-68
2023/10/15 11:20:52;;;;;;;2.08;0.80;;;;;;;;;;5038581;28;20955;-68
2023/10/15 11:23:18;;;;;;;2.25;0.95;;;;;;;;;;5040103;28;20031;-68
2023/10/15 11:25:44;;;;;;;2.67;1.00;;;;;;;;;;5046010;28;20806;-69
2023/10/15 11:28:10;;;;;;;3.88;0.90;;;;;;;;;;5040565;28;20911;-68
2023/10/15 11:30:36;;;;;;;2.63;0.85;;;;;;;;;;5039898;28;20027;-68
2023/10/15 11:33:06;;;;;;;3.20;0.90;;;;;;;;;;5061826;28;20398;-68
2023/10/15 11:35:32;;;;;;;2.88;0.70;;;;;;;;;;5090957;28;20479;-68
2023/10/15 11:37:57;;;;;;;3.05;1.42;;;;;;;;;;5091270;28;20375;-68
2023/10/15 11:40:23;;;;;;;3.15;0.65;;;;;;;;;;5090796;28;20032;-68
2023/10/15 11:42:51;;;;;;;3.30;0.80;;;;;;;;;;5084585;28;20024;-68
2023/10/15 11:45:25;;;;;;;2.33;0.75;;;;;;;;;;5060548;28;20024;-68
2023/10/15 11:47:51;;;;;;;2.35;0.82;;;;;;;;;;5090490;28;20024;-69
2023/10/15 11:50:19;;;;;;;4.50;1.00;;;;;;;;;;5090145;28;20039;-69
2023/10/15 11:52:44;;;;;;;1.60;0.47;;;;;;;;;;5090811;28;20024;-69
2023/10/15 11:55:16;;;;;;;1.67;0.70;;;;;;;;;;5088901;28;20497;-69
2023/10/15 11:57:42;;;;;;;2.28;0.50;;;;;;;;;;5090838;28;20023;-69
2023/10/15 12:00:09;;;;;;;2.75;0.50;;;;;;;;;;5090851;28;20471;-68
2023/10/15 12:02:34;;;;;;;1.67;0.65;;;;;;;;;;5090218;28;20048;-67
2023/10/15 12:05:01;;;;;;;1.77;0.60;;;;;;;;;;5086752;28;20052;-67
2023/10/15 12:07:28;;;;;;;2.70;0.50;;;;;;;;;;5094498;28;20020;-67
2023/10/15 12:09:53;;;;;;;3.90;0.60;;;;;;;;;;5094671;28;20115;-67
2023/10/15 12:12:18;;;;;;;1.92;0.50;;;;;;;;;;5090008;28;20104;-67
2023/10/15 12:14:43;;;;;;;3.55;0.70;;;;;;;;;;5094442;28;20056;-67
2023/10/15 12:17:12;;;;;;;1.77;0.50;;;;;;;;;;5094039;28;20035;-67
2023/10/15 12:19:37;;;;;;;2.83;0.57;;;;;;;;;;5094313;28;20315;-67
2023/10/15 12:22:03;;;;;;;1.50;0.40;;;;;;;;;;5094043;28;20020;-67
2023/10/15 12:24:28;;;;;;;3.65;0.30;;;;;;;;;;5093686;28;20339;-67
2023/10/15 12:26:54;;;;;;;1.77;0.60;;;;;;;;;;5044631;28;20131;-67
2023/10/15 12:29:28;;;;;;;3.72;0.60;;;;;;;;;;5038020;28;20821;-67
2023/10/15 12:31:54;;;;;;;1.58;0.47;;;;;;;;;;5049310;28;20092;-67
2023/10/15 12:34:20;;;;;;;2.33;0.47;;;;;;;;;;5066051;28;20008;-67
2023/10/15 12:36:45;;;;;;;2.17;0.55;;;;;;;;;;5093992;28;20050;-67
2023/10/15 12:39:10;;;;;;;1.60;0.35;;;;;;;;;;5093615;28;20062;-67
2023/10/15 12:41:38;;;;;;;2.63;0.50;;;;;;;;;;5093694;28;20107;-67
2023/10/15 12:44:09;;;;;;;2.17;0.50;;;;;;;;;;5093448;28;20282;-66
2023/10/15 12:46:35;;;;;;;1.05;0.40;;;;;;;;;;5091799;28;20370;-66
2023/10/15 12:49:02;;;;;;;1.48;0.47;;;;;;;;;;5093028;28;20487;-66
2023/10/15 12:51:27;;;;;;;2.30;0.40;;;;;;;;;;5092611;28;20383;-67
2023/10/15 12:53:52;;;;;;;1.45;0.35;;;;;;;;;;5093426;28;20027;-66
2023/10/15 12:56:18;;;;;;;2.00;0.53;;;;;;;;;;5093911;28;20020;-67
2023/10/15 12:58:44;;;;;;;3.20;0.68;;;;;;;;;;5093796;28;20277;-66
2023/10/15 13:01:09;;;;;;;1.52;0.43;;;;;;;;;;5093093;28;20024;-67
2023/10/15 13:03:34;;;;;;;2.25;0.60;;;;;;;;;;5090152;28;20020;-66
2023/10/15 13:05:59;;;;;;;3.60;0.43;;;;;;;;;;5086844;28;20039;-67
2023/10/15 13:08:25;;;;;;;2.15;0.52;;;;;;;;;;5091226;28;20274;-66
2023/10/15 13:10:51;;;;;;;1.95;0.50;;;;;;;;;;5089132;28;20031;-67
2023/10/15 13:13:16;;;;;;;2.53;0.60;;;;;;;;;;5092724;28;20023;-67
2023/10/15 13:15:41;;;;;;;1.70;0.60;;;;;;;;;;5093174;28;20027;-67
2023/10/15 13:18:07;;;;;;;3.20;0.80;;;;;;;;;;5087981;28;20038;-67
2023/10/15 13:20:32;;;;;;;2.47;0.55;;;;;;;;;;5093160;28;20047;-67
2023/10/15 13:22:57;;;;;;;1.98;0.55;;;;;;;;;;5093339;28;20016;-67
2023/10/15 13:25:22;;;;;;;1.53;0.50;;;;;;;;;;5088283;28;20020;-66
2023/10/15 13:27:48;;;;;;;2.85;0.45;;;;;;;;;;5092811;28;20315;-66
2023/10/15 13:30:15;;;;;;;2.10;0.52;;;;;;;;;;5093215;28;20096;-66
2023/10/15 13:32:41;;;;;;;2.80;0.60;;;;;;;;;;5093589;28;20099;-66
2023/10/15 13:35:07;;;;;;;2.22;0.60;;;;;;;;;;5092493;28;20103;-67
2023/10/15 13:37:32;;;;;;;2.58;0.88;;;;;;;;;;5083682;28;20078;-66
2023/10/15 13:39:57;;;;;;;4.50;0.80;;;;;;;;;;5091579;28;20020;-67
2023/10/15 13:42:23;;;;;;;1.77;0.50;;;;;;;;;;5093489;28;20035;-67
2023/10/15 13:44:49;;;;;;;3.58;0.75;;;;;;;;;;5092697;28;20035;-67
2023/10/15 13:47:14;;;;;;;4.00;0.60;;;;;;;;;;5089720;28;20058;-67
2023/10/15 13:49:39;;;;;;;1.95;0.77;;;;;;;;;;5051990;28;20028;-67
2023/10/15 13:52:04;;;;;;;3.20;1.13;;;;;;;;;;5046255;28;20853;-68
2023/10/15 13:54:30;;;;;;;2.78;0.70;;;;;;;;;;5046946;28;21068;-67
2023/10/15 13:56:57;;;;;;;3.33;0.80;;;;;;;;;;5047897;28;20092;-66
2023/10/15 13:59:24;;;;;;;2.25;0.55;;;;;;;;;;5046785;28;20028;-66
2023/10/15 14:01:49;;;;;;;2.63;0.60;;;;;;;;;;5047685;28;20028;-67
2023/10/15 14:04:14;;;;;;;2.45;0.88;;;;;;;;;;5047435;28;20073;-67
2023/10/15 14:06:40;;;;;;;2.80;1.00;;;;;;;;;;5048061;28;20796;-66
2023/10/15 14:09:10;;;;;;;2.03;0.50;;;;;;;;;;5046030;28;20324;-66
2023/10/15 14:11:37;;;;;;;1.80;0.50;;;;;;;;;;5043279;28;20285;-66
2023/10/15 14:14:03;;;;;;;2.53;0.70;;;;;;;;;;5043238;28;20910;-66
2023/10/15 14:16:29;;;;;;;2.55;0.80;;;;;;;;;;5031170;28;20028;-67
2023/10/15 14:18:54;;;;;;;5.00;0.73;;;;;;;;;;5037209;28;20032;-66
2023/10/15 14:21:19;;;;;;;4.63;0.90;;;;;;;;;;5061747;28;20192;-67
2023/10/15 14:23:45;;;;;;;2.78;0.73;;;;;;;;;;5092320;28;20016;-67
2023/10/15 14:26:12;;;;;;;3.38;0.70;;;;;;;;;;5079658;28;20040;-66
2023/10/15 14:28:37;;;;;;;2.50;0.70;;;;;;;;;;5090603;28;20028;-66
2023/10/15 14:31:02;;;;;;;2.60;0.70;;;;;;;;;;5086587;28;20483;-67
2023/10/15 14:33:27;;;;;;;3.67;0.70;;;;;;;;;;5083747;28;20288;-67
2023/10/15 14:35:54;;;;;;;3.42;0.75;;;;;;;;;;5092516;28;20099;-65
2023/10/15 14:38:19;;;;;;;2.38;0.73;;;;;;;;;;5092024;28;20054;-67
2023/10/15 14:40:44;;;;;;;3.38;0.82;;;;;;;;;;5092605;28;20047;-68
2023/10/15 14:43:10;;;;;;;3.47;0.90;;;;;;;;;;5086997;28;20028;-66
2023/10/15 14:45:36;;;;;;;1.63;0.63;;;;;;;;;;5047810;28;20751;-67
2023/10/15 14:48:03;;;;;;;3.22;0.77;;;;;;;;;;5044661;28;20031;-66
2023/10/15 14:50:28;;;;;;;3.70;0.75;;;;;;;;;;5045228;28;20028;-67
2023/10/15 14:52:54;;;;;;;2.17;0.77;;;;;;;;;;5039682;28;20036;-67
2023/10/15 14:55:19;;;;;;;1.70;0.40;;;;;;;;;;5047982;28;20873;-66
2023/10/15 14:57:45;;;;;;;6.93;1.13;;;;;;;;;;5048779;28;20047;-67